createdAt,value
2023-03-29T00:01:03.565Z,6.20
2023-03-29T00:03:33.983Z,6.20
2023-03-29T00:06:04.054Z,6.20
2023-03-29T00:08:35.205Z,6.10
2023-03-29T00:11:03.958Z,6.20
2023-03-29T00:13:32.542Z,6.10
2023-03-29T00:16:00.793Z,6.20
2023-03-29T00:18:28.912Z,6.10
2023-03-29T00:20:57.198Z,6.10
2023-03-29T00:23:26.201Z,6.20
2023-03-29T00:25:57.057Z,6.20
2023-03-29T00:28:25.901Z,6.20
2023-03-29T00:30:55.209Z,6.20
2023-03-29T00:33:23.418Z,6.10
2023-03-29T00:35:54.350Z,6.10
2023-03-29T00:38:22.636Z,6.10
2023-03-29T00:40:50.852Z,6.20
2023-03-29T00:43:20.638Z,6.20
2023-03-29T00:45:48.848Z,6.10
2023-03-29T00:48:19.637Z,6.20
2023-03-29T00:50:51.727Z,6.10
2023-03-29T00:53:26.197Z,6.10
2023-03-29T00:55:59.280Z,6.20
2023-03-29T00:58:35.722Z,6.10
2023-03-29T01:01:11.541Z,6.10
2023-03-29T01:03:46.803Z,6.10
2023-03-29T01:06:18.838Z,6.10
2023-03-29T01:08:52.310Z,6.20
2023-03-29T01:11:26.579Z,6.20
2023-03-29T01:14:00.039Z,6.20
2023-03-29T01:16:30.445Z,6.30
2023-03-29T01:19:01.115Z,6.30
2023-03-29T01:21:34.863Z,6.20
2023-03-29T01:24:33.266Z,6.20
2023-03-29T01:27:11.360Z,6.20
2023-03-29T01:29:45.553Z,6.10
2023-03-29T01:32:18.348Z,6.10
2023-03-29T01:34:51.544Z,6.10
2023-03-29T01:37:24.752Z,6.10
2023-03-29T01:39:53.784Z,6.20
2023-03-29T01:42:33.272Z,6.10
2023-03-29T01:45:13.444Z,6.10
2023-03-29T01:47:50.493Z,6.00
2023-03-29T01:50:22.818Z,5.90
2023-03-29T01:52:57.803Z,5.90
2023-03-29T01:55:31.487Z,5.80
2023-03-29T01:58:02.958Z,5.80
2023-03-29T02:00:35.278Z,5.60
2023-03-29T02:03:07.599Z,5.50
2023-03-29T02:05:36.958Z,5.50
2023-03-29T02:08:08.651Z,5.40
2023-03-29T02:10:38.055Z,5.50
2023-03-29T02:13:06.949Z,5.50
2023-03-29T02:15:37.331Z,5.50
2023-03-29T02:18:06.945Z,5.50
2023-03-29T02:20:38.984Z,5.70
2023-03-29T02:23:12.544Z,5.80
2023-03-29T02:25:41.480Z,5.80
2023-03-29T02:28:10.145Z,5.90
2023-03-29T02:30:49.428Z,5.90
2023-03-29T02:33:21.797Z,5.80
2023-03-29T02:35:56.729Z,5.70
2023-03-29T02:38:27.827Z,5.70
2023-03-29T02:40:57.859Z,5.70
2023-03-29T02:43:28.328Z,5.80
2023-03-29T02:45:58.374Z,5.80
2023-03-29T02:48:29.632Z,5.80
2023-03-29T02:51:02.447Z,5.70
2023-03-29T02:53:34.744Z,5.70
2023-03-29T02:56:03.455Z,5.60
2023-03-29T02:58:32.311Z,5.50
2023-03-29T03:01:03.768Z,5.40
2023-03-29T03:03:33.088Z,5.40
2023-03-29T03:06:04.003Z,5.40
2023-03-29T03:08:32.849Z,5.40
2023-03-29T03:11:01.145Z,5.40
2023-03-29T03:13:29.807Z,5.40
2023-03-29T03:15:58.057Z,5.40
2023-03-29T03:18:27.985Z,5.30
2023-03-29T03:20:57.562Z,5.30
2023-03-29T03:23:26.046Z,5.30
2023-03-29T03:25:55.973Z,5.30
2023-03-29T03:28:27.370Z,5.30
2023-03-29T03:30:56.417Z,5.20
2023-03-29T03:33:46.806Z,5.10
2023-03-29T03:36:37.474Z,5.10
2023-03-29T03:39:07.297Z,5.00
2023-03-29T03:41:35.904Z,5.10
2023-03-29T03:44:04.668Z,5.10
2023-03-29T03:46:33.666Z,5.10
2023-03-29T03:49:04.501Z,5.20
2023-03-29T03:51:41.905Z,5.20
2023-03-29T03:54:10.625Z,5.20
2023-03-29T03:56:41.352Z,5.20
2023-03-29T03:59:19.939Z,5.20
2023-03-29T04:02:01.452Z,5.10
2023-03-29T04:04:31.888Z,5.00
2023-03-29T04:07:20.395Z,5.00
2023-03-29T04:10:08.971Z,4.90
2023-03-29T04:12:49.433Z,4.90
2023-03-29T04:15:20.243Z,4.90
2023-03-29T04:17:57.068Z,4.90
2023-03-29T04:20:34.171Z,4.90
2023-03-29T04:23:02.910Z,4.90
2023-03-29T04:25:32.353Z,4.80
2023-03-29T04:28:20.482Z,4.80
2023-03-29T04:30:53.480Z,4.80
2023-03-29T04:33:47.592Z,4.80
2023-03-29T04:36:18.219Z,4.80
2023-03-29T04:38:47.952Z,4.80
2023-03-29T04:41:18.116Z,4.70
2023-03-29T04:43:46.661Z,4.70
2023-03-29T04:46:32.411Z,4.80
2023-03-29T04:49:07.291Z,4.80
2023-03-29T04:51:40.725Z,4.80
2023-03-29T04:54:10.152Z,4.80
2023-03-29T04:57:04.104Z,4.80
2023-03-29T04:59:49.212Z,4.80
2023-03-29T05:02:40.361Z,4.90
2023-03-29T05:05:09.344Z,4.90
2023-03-29T05:07:46.864Z,4.90
2023-03-29T05:10:16.687Z,4.80
2023-03-29T05:12:45.440Z,4.90
2023-03-29T05:15:14.838Z,5.00
2023-03-29T05:17:43.981Z,5.10
2023-03-29T05:20:14.604Z,5.10
2023-03-29T05:22:46.454Z,5.20
2023-03-29T05:25:27.313Z,5.30
2023-03-29T05:27:56.243Z,5.30
2023-03-29T05:30:24.473Z,5.50
2023-03-29T05:33:00.279Z,5.60
2023-03-29T05:35:30.456Z,5.70
2023-03-29T05:38:01.840Z,5.70
2023-03-29T05:40:31.424Z,5.80
2023-03-29T05:43:14.573Z,5.80
2023-03-29T05:45:43.235Z,5.90
2023-03-29T05:48:11.570Z,5.90
2023-03-29T05:50:47.143Z,6.00
2023-03-29T05:53:16.973Z,6.00
2023-03-29T05:55:46.690Z,6.10
2023-03-29T05:58:20.503Z,6.20
2023-03-29T06:00:51.338Z,6.40
2023-03-29T06:03:50.334Z,6.80
2023-03-29T06:06:21.563Z,7.20
2023-03-29T06:08:51.804Z,7.30
2023-03-29T06:11:28.665Z,7.50
2023-03-29T06:14:15.887Z,7.60
2023-03-29T06:16:51.779Z,7.40
2023-03-29T06:19:20.537Z,7.20
2023-03-29T06:21:49.088Z,7.30
2023-03-29T06:24:24.908Z,7.40
2023-03-29T06:27:00.406Z,7.60
2023-03-29T06:29:29.724Z,7.60
2023-03-29T06:31:58.110Z,7.60
2023-03-29T06:34:47.141Z,7.70
2023-03-29T06:37:31.942Z,7.70
2023-03-29T06:40:21.538Z,7.80
2023-03-29T06:42:51.161Z,8.00
2023-03-29T06:45:39.995Z,7.90
2023-03-29T06:48:15.107Z,7.80
2023-03-29T06:50:43.509Z,7.60
2023-03-29T06:53:15.655Z,7.50
2023-03-29T06:55:47.888Z,7.60
2023-03-29T06:58:37.576Z,7.70
2023-03-29T07:01:15.349Z,8.00
2023-03-29T07:03:49.777Z,8.40
2023-03-29T07:06:23.724Z,8.60
2023-03-29T07:08:52.506Z,8.70
2023-03-29T07:11:54.550Z,8.80
2023-03-29T07:14:26.643Z,8.80
2023-03-29T07:16:55.030Z,8.70
2023-03-29T07:19:31.124Z,8.90
2023-03-29T07:22:19.489Z,9.30
2023-03-29T07:24:53.256Z,9.60
2023-03-29T07:27:23.661Z,9.60
2023-03-29T07:29:52.230Z,9.60
2023-03-29T07:32:23.526Z,9.60
2023-03-29T07:35:30.934Z,9.50
2023-03-29T07:37:59.855Z,9.60
2023-03-29T07:40:29.462Z,9.70
2023-03-29T07:42:59.670Z,9.90
2023-03-29T07:45:32.461Z,10.10
2023-03-29T07:48:12.712Z,10.20
2023-03-29T07:50:53.232Z,10.40
2023-03-29T07:53:27.133Z,10.60
2023-03-29T07:55:57.849Z,10.70
2023-03-29T07:58:50.856Z,10.70
2023-03-29T08:01:20.683Z,10.80
2023-03-29T08:04:16.876Z,10.90
2023-03-29T08:07:03.884Z,11.10
2023-03-29T08:09:52.232Z,11.30
2023-03-29T08:12:25.024Z,11.40
2023-03-29T08:14:55.347Z,11.40
2023-03-29T08:17:28.705Z,11.40
2023-03-29T08:19:57.170Z,11.50
2023-03-29T08:22:26.397Z,11.60
2023-03-29T08:25:13.683Z,11.70
2023-03-29T08:27:46.362Z,11.80
2023-03-29T08:30:21.208Z,11.80
2023-03-29T08:32:52.195Z,12.10
2023-03-29T08:35:23.271Z,12.40
2023-03-29T08:38:12.560Z,12.90
2023-03-29T08:40:41.373Z,13.50
2023-03-29T08:43:33.406Z,13.90
2023-03-29T08:46:35.725Z,14.40
2023-03-29T08:49:30.743Z,15.00
2023-03-29T08:52:02.350Z,15.30
2023-03-29T08:54:37.991Z,15.40
2023-03-29T08:57:18.136Z,15.60
2023-03-29T08:59:55.678Z,15.60
2023-03-29T09:02:28.611Z,15.70
2023-03-29T09:05:08.756Z,15.90
2023-03-29T09:07:55.001Z,16.00
2023-03-29T09:10:30.996Z,15.80
2023-03-29T09:13:12.496Z,15.80
2023-03-29T09:15:49.550Z,15.90
2023-03-29T09:18:45.112Z,16.00
2023-03-29T09:21:20.460Z,16.10
2023-03-29T09:24:11.030Z,16.20
2023-03-29T09:27:05.837Z,16.30
2023-03-29T09:29:57.823Z,16.20
2023-03-29T09:32:48.529Z,16.10
2023-03-29T09:35:24.386Z,15.90
2023-03-29T09:37:55.793Z,15.80
2023-03-29T09:40:28.906Z,15.70
2023-03-29T09:43:09.114Z,15.80
2023-03-29T09:45:38.589Z,15.70
2023-03-29T09:48:13.646Z,15.70
2023-03-29T09:50:47.883Z,15.70
2023-03-29T09:53:16.991Z,15.90
2023-03-29T09:55:53.068Z,15.90
2023-03-29T09:58:36.297Z,16.00
2023-03-29T10:01:09.261Z,16.10
2023-03-29T10:03:38.282Z,16.10
2023-03-29T10:06:20.701Z,15.70
2023-03-29T10:08:58.843Z,15.30
2023-03-29T10:11:35.493Z,15.10
2023-03-29T10:14:07.181Z,14.90
2023-03-29T10:16:38.692Z,15.00
2023-03-29T10:19:22.461Z,15.10
2023-03-29T10:21:54.044Z,15.00
2023-03-29T10:24:23.749Z,14.80
2023-03-29T10:26:55.527Z,14.70
2023-03-29T10:29:24.994Z,14.70
2023-03-29T10:31:53.822Z,14.60
2023-03-29T10:34:28.118Z,14.70
2023-03-29T10:37:00.990Z,14.70
2023-03-29T10:39:32.028Z,14.80
2023-03-29T10:42:01.341Z,14.80
2023-03-29T10:44:33.278Z,14.90
2023-03-29T10:47:10.863Z,15.00
2023-03-29T10:49:44.140Z,15.10
2023-03-29T10:52:16.500Z,15.10
2023-03-29T10:54:45.535Z,15.00
2023-03-29T10:57:17.478Z,14.90
2023-03-29T10:59:57.697Z,14.90
2023-03-29T11:03:15.905Z,15.00
2023-03-29T11:05:50.437Z,15.20
2023-03-29T11:08:48.410Z,15.20
2023-03-29T11:11:32.832Z,15.20
2023-03-29T11:14:08.655Z,15.30
2023-03-29T11:16:46.202Z,15.30
2023-03-29T11:19:27.202Z,15.30
2023-03-29T11:22:05.905Z,15.30
2023-03-29T11:24:55.120Z,15.30
2023-03-29T11:27:33.891Z,15.40
2023-03-29T11:30:08.937Z,15.40
2023-03-29T11:32:47.585Z,15.40
2023-03-29T11:35:34.219Z,15.50
2023-03-29T11:38:09.397Z,15.40
2023-03-29T11:40:51.400Z,15.40
2023-03-29T11:43:26.566Z,15.40
2023-03-29T11:45:58.777Z,15.50
2023-03-29T11:48:32.425Z,15.50
2023-03-29T11:51:10.616Z,15.70
2023-03-29T11:53:47.084Z,15.80
2023-03-29T11:56:23.419Z,16.00
2023-03-29T11:58:58.484Z,16.20
2023-03-29T12:01:34.352Z,16.30
2023-03-29T12:04:07.775Z,16.40
2023-03-29T12:06:41.843Z,16.40
2023-03-29T12:09:18.425Z,16.60
2023-03-29T12:11:54.121Z,16.60
2023-03-29T12:14:28.196Z,16.50
2023-03-29T12:17:01.003Z,16.60
2023-03-29T12:19:33.114Z,16.60
2023-03-29T12:22:02.260Z,16.50
2023-03-29T12:24:35.192Z,16.40
2023-03-29T12:27:26.496Z,16.40
2023-03-29T12:30:29.137Z,16.40
2023-03-29T12:33:15.134Z,16.20
2023-03-29T12:36:14.869Z,16.10
2023-03-29T12:39:02.260Z,16.10
2023-03-29T12:41:51.947Z,16.10
2023-03-29T12:44:52.840Z,16.00
2023-03-29T12:47:30.079Z,15.70
2023-03-29T12:50:00.432Z,15.60
2023-03-29T12:52:33.279Z,15.50
2023-03-29T12:55:04.482Z,15.50
2023-03-29T12:57:42.247Z,15.60
2023-03-29T13:00:32.343Z,15.70
2023-03-29T13:03:03.219Z,15.70
2023-03-29T13:05:34.237Z,15.80
2023-03-29T13:08:20.188Z,15.80
2023-03-29T13:10:55.472Z,15.80
2023-03-29T13:13:28.800Z,15.90
2023-03-29T13:16:11.771Z,15.90
2023-03-29T13:18:55.960Z,16.00
2023-03-29T13:21:32.904Z,16.10
2023-03-29T13:24:07.922Z,16.00
2023-03-29T13:26:47.902Z,15.90
2023-03-29T13:29:51.151Z,15.90
2023-03-29T13:32:37.904Z,15.80
2023-03-29T13:35:16.501Z,15.80
2023-03-29T13:37:56.744Z,15.80
2023-03-29T13:40:42.935Z,15.70
2023-03-29T13:43:20.332Z,15.60
2023-03-29T13:46:06.884Z,15.60
2023-03-29T13:48:55.085Z,15.50
2023-03-29T13:51:32.682Z,15.40
2023-03-29T13:54:08.438Z,15.40
2023-03-29T13:56:43.333Z,15.30
2023-03-29T13:59:16.654Z,15.30
2023-03-29T14:01:51.636Z,15.30
2023-03-29T14:04:25.548Z,15.30
2023-03-29T14:06:56.488Z,15.20
2023-03-29T14:09:30.002Z,15.30
2023-03-29T14:12:00.959Z,15.30
2023-03-29T14:14:33.103Z,15.30
2023-03-29T14:17:02.681Z,15.30
2023-03-29T14:19:36.217Z,15.30
2023-03-29T14:22:09.392Z,15.30
2023-03-29T14:24:41.102Z,15.20
2023-03-29T14:27:13.596Z,15.30
2023-03-29T14:29:41.925Z,15.30
2023-03-29T14:32:11.822Z,15.30
2023-03-29T14:34:41.762Z,15.30
2023-03-29T14:37:12.156Z,15.30
2023-03-29T14:39:42.088Z,15.40
2023-03-29T14:42:19.770Z,15.50
2023-03-29T14:44:49.075Z,15.50
2023-03-29T14:47:22.136Z,15.50
2023-03-29T14:49:54.367Z,15.50
2023-03-29T14:52:22.999Z,15.50
2023-03-29T14:54:56.547Z,15.50
2023-03-29T14:57:28.394Z,15.50
2023-03-29T15:00:01.268Z,15.50
2023-03-29T15:02:31.976Z,15.40
2023-03-29T15:05:04.979Z,15.30
2023-03-29T15:07:36.468Z,15.20
2023-03-29T15:10:06.613Z,15.10
2023-03-29T15:12:35.442Z,15.10
2023-03-29T15:15:04.250Z,15.00
2023-03-29T15:17:47.508Z,14.80
2023-03-29T15:20:25.159Z,14.80
2023-03-29T15:23:04.152Z,14.80
2023-03-29T15:25:36.411Z,14.80
2023-03-29T15:28:05.309Z,14.80
2023-03-29T15:30:36.811Z,14.80
2023-03-29T15:33:20.789Z,14.90
2023-03-29T15:35:53.752Z,15.00
2023-03-29T15:38:27.700Z,15.00
2023-03-29T15:40:58.938Z,14.90
2023-03-29T15:43:27.298Z,15.00
2023-03-29T15:45:55.511Z,15.00
2023-03-29T15:48:26.629Z,15.00
2023-03-29T15:50:58.791Z,15.00
2023-03-29T15:53:29.071Z,14.90
2023-03-29T15:56:01.674Z,14.90
2023-03-29T15:58:33.649Z,14.90
2023-03-29T16:01:13.098Z,14.90
2023-03-29T16:03:41.675Z,14.80
2023-03-29T16:06:13.206Z,14.90
2023-03-29T16:08:41.871Z,15.00
2023-03-29T16:11:10.291Z,14.90
2023-03-29T16:13:38.641Z,14.90
2023-03-29T16:16:08.618Z,14.90
2023-03-29T16:18:36.963Z,14.90
2023-03-29T16:21:06.321Z,14.90
2023-03-29T16:23:36.042Z,14.90
2023-03-29T16:26:06.650Z,14.80
2023-03-29T16:28:35.232Z,14.70
2023-03-29T16:31:03.743Z,14.60
2023-03-29T16:33:32.843Z,14.60
2023-03-29T16:36:01.374Z,14.70
2023-03-29T16:38:29.749Z,14.70
2023-03-29T16:40:59.348Z,14.70
2023-03-29T16:43:27.766Z,14.70
2023-03-29T16:45:56.898Z,14.70
2023-03-29T16:48:25.353Z,14.70
2023-03-29T16:50:53.625Z,14.60
2023-03-29T16:53:22.287Z,14.60
2023-03-29T16:55:51.284Z,14.70
2023-03-29T16:58:21.462Z,14.70
2023-03-29T17:00:49.763Z,14.70
2023-03-29T17:03:18.000Z,14.70
2023-03-29T17:05:48.702Z,14.70
2023-03-29T17:08:17.175Z,14.70
2023-03-29T17:10:46.338Z,14.70
2023-03-29T17:13:14.822Z,14.70
2023-03-29T17:15:44.894Z,14.70
2023-03-29T17:18:13.995Z,14.70
2023-03-29T17:20:42.474Z,14.70
2023-03-29T17:23:10.982Z,14.70
2023-03-29T17:25:39.148Z,14.70
2023-03-29T17:28:07.414Z,14.70
2023-03-29T17:30:36.233Z,14.60
2023-03-29T17:33:08.122Z,14.60
2023-03-29T17:35:36.615Z,14.60
2023-03-29T17:38:04.882Z,14.70
2023-03-29T17:40:33.025Z,14.70
2023-03-29T17:43:01.414Z,14.70
2023-03-29T17:45:29.645Z,14.70
2023-03-29T17:47:58.135Z,14.60
2023-03-29T17:50:28.178Z,14.60
2023-03-29T17:52:56.541Z,14.40
2023-03-29T17:55:24.680Z,14.30
2023-03-29T17:57:53.053Z,14.30
2023-03-29T18:00:22.140Z,14.20
2023-03-29T18:02:50.766Z,14.20
2023-03-29T18:05:19.344Z,14.20
2023-03-29T18:07:49.161Z,14.20
2023-03-29T18:10:17.917Z,14.20
2023-03-29T18:12:48.622Z,14.20
2023-03-29T18:15:17.519Z,14.20
2023-03-29T18:17:45.967Z,14.10
2023-03-29T18:20:14.665Z,14.00
2023-03-29T18:22:44.751Z,14.00
2023-03-29T18:25:14.612Z,14.00
2023-03-29T18:27:42.836Z,14.00
2023-03-29T18:30:13.862Z,14.00
2023-03-29T18:32:42.486Z,14.00
2023-03-29T18:35:11.581Z,13.90
2023-03-29T18:37:40.434Z,14.00
2023-03-29T18:40:10.296Z,14.00
2023-03-29T18:42:40.050Z,14.00
2023-03-29T18:45:09.457Z,14.00
2023-03-29T18:47:38.149Z,14.10
2023-03-29T18:50:07.877Z,14.00
2023-03-29T18:52:36.510Z,14.00
2023-03-29T18:55:05.659Z,14.00
2023-03-29T18:57:34.212Z,14.00
2023-03-29T19:00:10.646Z,14.00
2023-03-29T19:02:39.161Z,13.90
2023-03-29T19:05:08.965Z,13.90
2023-03-29T19:07:37.475Z,13.80
2023-03-29T19:10:08.477Z,13.80
2023-03-29T19:12:37.107Z,13.80
2023-03-29T19:15:08.094Z,13.80
2023-03-29T19:17:36.354Z,13.80
2023-03-29T19:20:08.932Z,13.80
2023-03-29T19:22:37.279Z,13.80
2023-03-29T19:25:06.616Z,13.80
2023-03-29T19:27:35.659Z,13.80
2023-03-29T19:30:04.351Z,13.80
2023-03-29T19:32:34.271Z,13.80
2023-03-29T19:35:03.020Z,13.80
2023-03-29T19:37:31.622Z,13.70
2023-03-29T19:39:59.747Z,13.60
2023-03-29T19:42:28.130Z,13.60
2023-03-29T19:44:56.511Z,13.60
2023-03-29T19:47:25.091Z,13.60
2023-03-29T19:49:54.917Z,13.60
2023-03-29T19:52:24.089Z,13.60
2023-03-29T19:54:52.572Z,13.70
2023-03-29T19:57:21.465Z,13.70
2023-03-29T19:59:50.042Z,13.60
2023-03-29T20:02:18.308Z,13.60
2023-03-29T20:04:46.789Z,13.50
2023-03-29T20:07:16.618Z,13.50
2023-03-29T20:09:45.480Z,13.50
2023-03-29T20:12:13.752Z,13.50
2023-03-29T20:14:43.388Z,13.60
2023-03-29T20:17:11.734Z,13.60
2023-03-29T20:19:44.224Z,13.60
2023-03-29T20:22:13.600Z,13.60
2023-03-29T20:24:43.215Z,13.50
2023-03-29T20:27:12.084Z,13.50
2023-03-29T20:29:40.442Z,13.40
2023-03-29T20:32:09.140Z,13.40
2023-03-29T20:34:38.037Z,13.40
2023-03-29T20:37:06.410Z,13.40
2023-03-29T20:39:34.753Z,13.40
2023-03-29T20:42:04.421Z,13.40
2023-03-29T20:44:35.247Z,13.40
2023-03-29T20:47:03.851Z,13.30
2023-03-29T20:49:37.401Z,13.30
2023-03-29T20:52:08.667Z,13.40
2023-03-29T20:54:38.804Z,13.40
2023-03-29T20:57:10.363Z,13.30
2023-03-29T20:59:39.015Z,13.30
2023-03-29T21:02:08.601Z,13.30
2023-03-29T21:04:37.115Z,13.30
2023-03-29T21:07:08.193Z,13.20
2023-03-29T21:09:37.236Z,13.20
2023-03-29T21:12:05.813Z,13.20
2023-03-29T21:14:35.543Z,13.10
2023-03-29T21:17:03.826Z,13.10
2023-03-29T21:19:32.368Z,13.10
2023-03-29T21:22:00.578Z,13.10
2023-03-29T21:24:28.826Z,13.20
2023-03-29T21:26:57.096Z,13.30
2023-03-29T21:29:25.775Z,13.30
2023-03-29T21:31:55.893Z,13.40
2023-03-29T21:34:24.324Z,13.40
2023-03-29T21:36:52.580Z,13.30
2023-03-29T21:39:20.782Z,13.30
2023-03-29T21:41:48.972Z,13.30
2023-03-29T21:44:17.362Z,13.20
2023-03-29T21:46:46.357Z,13.30
2023-03-29T21:49:16.109Z,13.20
2023-03-29T21:51:44.406Z,13.20
2023-03-29T21:54:12.846Z,13.20
2023-03-29T21:56:41.142Z,13.20
2023-03-29T21:59:09.543Z,13.10
2023-03-29T22:01:38.045Z,13.10
2023-03-29T22:04:06.935Z,13.10
2023-03-29T22:06:37.126Z,13.10
2023-03-29T22:09:06.177Z,13.20
2023-03-29T22:11:34.681Z,13.20
2023-03-29T22:14:04.214Z,13.20
2023-03-29T22:16:32.616Z,13.20
2023-03-29T22:19:01.178Z,13.30
2023-03-29T22:21:31.172Z,13.30
2023-03-29T22:24:01.889Z,13.30
2023-03-29T22:26:32.135Z,13.20
2023-03-29T22:29:02.030Z,13.10
2023-03-29T22:31:32.570Z,13.10
2023-03-29T22:34:02.724Z,13.10
2023-03-29T22:36:32.592Z,13.10
2023-03-29T22:39:02.237Z,13.10
2023-03-29T22:41:30.673Z,13.00
2023-03-29T22:44:01.019Z,13.00
2023-03-29T22:46:29.497Z,13.00
2023-03-29T22:48:57.726Z,12.90
2023-03-29T22:51:26.238Z,13.00
2023-03-29T22:53:54.783Z,12.90
2023-03-29T22:56:24.793Z,12.90
2023-03-29T22:58:53.279Z,13.00
2023-03-29T23:01:21.534Z,13.00
2023-03-29T23:03:50.173Z,13.10
2023-03-29T23:06:18.522Z,13.20
2023-03-29T23:08:46.823Z,13.20
2023-03-29T23:11:15.369Z,13.10
2023-03-29T23:13:48.646Z,13.00
2023-03-29T23:16:20.646Z,13.00
2023-03-29T23:18:49.450Z,12.90
2023-03-29T23:21:17.757Z,12.90
2023-03-29T23:23:46.075Z,12.90
2023-03-29T23:26:14.396Z,13.00
2023-03-29T23:28:44.743Z,13.00
2023-03-29T23:31:17.892Z,13.00
2023-03-29T23:33:46.130Z,13.00
2023-03-29T23:36:16.544Z,13.00
2023-03-29T23:38:46.208Z,12.90
2023-03-29T23:41:15.126Z,12.90
2023-03-29T23:43:47.403Z,12.80
2023-03-29T23:46:17.479Z,12.90
2023-03-29T23:48:47.145Z,12.80
2023-03-29T23:51:18.156Z,12.90
2023-03-29T23:53:47.427Z,12.90
2023-03-29T23:56:15.698Z,12.90
2023-03-29T23:58:45.590Z,12.90
